Time;durP1;ratioP1;P1;durP2;ratioP2;P2;SDS_P1;SDS_P2;PMS_P1;PMS_P2;Temp;Humidity;BMP_temperature;BMP_pressure;BME280_temperature;BME280_humidity;BME280_pressure;Samples;Min_cycle;Max_cycle;Signal;HPM_P1;HPM_P2
2022/08/06 00:03:51;;;;;;;6.05;3.53;;;;;;;;;;10457943;28;20083;-90
2022/08/06 00:08:56;;;;;;;8.25;3.03;;;;;;;;;;10461333;28;20049;-90
2022/08/06 00:13:59;;;;;;;4.45;2.33;;;;;;;;;;10460632;28;20057;-90
2022/08/06 00:19:05;;;;;;;8.98;4.00;;;;;;;;;;10477380;28;20040;-91
2022/08/06 00:24:17;;;;;;;9.15;3.83;;;;;;;;;;10455448;28;20065;-91
2022/08/06 00:29:30;;;;;;;9.32;4.05;;;;;;;;;;10461850;28;20108;-91
2022/08/06 00:34:49;;;;;;;8.73;4.22;;;;;;;;;;10455855;28;20127;-90
2022/08/06 00:39:55;;;;;;;5.80;3.47;;;;;;;;;;10459851;28;20040;-91
2022/08/06 00:45:00;;;;;;;8.00;3.58;;;;;;;;;;10450504;28;20547;-91
2022/08/06 00:50:04;;;;;;;11.85;4.60;;;;;;;;;;10453577;28;20342;-91
2022/08/06 00:55:09;;;;;;;8.23;4.60;;;;;;;;;;10471506;28;20043;-92
2022/08/06 01:00:19;;;;;;;8.82;4.60;;;;;;;;;;10454065;28;20078;-91
2022/08/06 01:05:32;;;;;;;6.28;3.25;;;;;;;;;;10454319;28;20044;-90
2022/08/06 01:10:57;;;;;;;7.47;3.42;;;;;;;;;;10463564;28;20135;-89
2022/08/06 01:16:10;;;;;;;5.75;3.35;;;;;;;;;;10463369;28;20060;-90
2022/08/06 01:21:52;;;;;;;6.93;2.83;;;;;;;;;;10470486;28;20053;-89
2022/08/06 01:27:39;;;;;;;6.15;2.95;;;;;;;;;;10483089;28;20028;-92
2022/08/06 01:32:52;;;;;;;5.28;2.90;;;;;;;;;;10473519;28;20045;-90
2022/08/06 01:38:06;;;;;;;6.47;2.72;;;;;;;;;;10459949;28;20144;-91
2022/08/06 01:43:22;;;;;;;5.60;3.33;;;;;;;;;;10452849;28;20078;-90
2022/08/06 01:48:58;;;;;;;6.15;3.70;;;;;;;;;;10451346;28;20119;-89
2022/08/06 01:54:29;;;;;;;6.43;3.50;;;;;;;;;;10468273;28;20064;-90
2022/08/06 01:59:45;;;;;;;7.15;3.50;;;;;;;;;;10443354;28;20050;-89
2022/08/06 02:04:53;;;;;;;8.73;3.80;;;;;;;;;;10461016;28;20049;-91
2022/08/06 02:10:02;;;;;;;9.38;3.65;;;;;;;;;;10460140;28;20029;-88
2022/08/06 02:15:20;;;;;;;7.25;3.55;;;;;;;;;;10461455;28;20431;-88
2022/08/06 02:20:51;;;;;;;7.32;3.53;;;;;;;;;;10459969;28;20040;-89
2022/08/06 02:25:58;;;;;;;9.63;4.30;;;;;;;;;;10472824;28;20475;-88
2022/08/06 02:31:12;;;;;;;7.38;4.00;;;;;;;;;;10459963;28;20125;-89
2022/08/06 02:36:21;;;;;;;7.07;3.47;;;;;;;;;;10467448;28;20080;-87
2022/08/06 02:41:38;;;;;;;6.40;3.03;;;;;;;;;;10463395;28;20132;-87
2022/08/06 02:47:11;;;;;;;5.18;3.08;;;;;;;;;;10474224;28;20032;-85
2022/08/06 02:53:07;;;;;;;6.50;3.50;;;;;;;;;;10461263;28;20283;-88
2022/08/06 02:58:30;;;;;;;6.97;3.17;;;;;;;;;;10446471;28;20051;-88
2022/08/06 03:03:50;;;;;;;6.78;3.75;;;;;;;;;;10462506;28;20036;-88
2022/08/06 03:09:03;;;;;;;8.43;3.70;;;;;;;;;;10460254;28;20044;-89
2022/08/06 03:14:25;;;;;;;7.30;4.00;;;;;;;;;;10464900;28;20040;-88
2022/08/06 03:20:11;;;;;;;9.25;5.07;;;;;;;;;;10467054;28;20051;-89
2022/08/06 03:25:20;;;;;;;10.30;5.05;;;;;;;;;;10450641;28;20041;-90
2022/08/06 03:30:47;;;;;;;15.32;6.30;;;;;;;;;;10466596;28;20037;-90
2022/08/06 03:36:07;;;;;;;11.23;5.75;;;;;;;;;;10458917;28;20035;-89
2022/08/06 03:41:13;;;;;;;11.30;5.10;;;;;;;;;;10460647;28;20120;-88
2022/08/06 03:46:37;;;;;;;;;;;;;;;;;;10473806;28;20135;-90
2022/08/06 03:51:50;;;;;;;12.05;6.07;;;;;;;;;;10437471;28;20436;-90
2022/08/06 04:02:56;;;;;;;13.40;6.38;;;;;;;;;;10458986;28;20579;-89
2022/08/06 04:08:15;;;;;;;11.50;5.50;;;;;;;;;;10465136;28;20047;-89
2022/08/06 04:13:27;;;;;;;9.85;5.05;;;;;;;;;;10441069;28;20068;-89
2022/08/06 04:19:02;;;;;;;12.73;6.82;;;;;;;;;;10455347;28;20037;-88
2022/08/06 04:24:10;;;;;;;15.33;7.93;;;;;;;;;;10479589;28;20110;-89
2022/08/06 04:29:19;;;;;;;24.42;11.13;;;;;;;;;;10453584;28;20040;-88
2022/08/06 04:34:27;;;;;;;26.88;13.45;;;;;;;;;;10479948;28;20060;-88
2022/08/06 04:39:37;;;;;;;28.52;13.30;;;;;;;;;;10459386;28;20033;-89
2022/08/06 04:44:59;;;;;;;26.20;13.18;;;;;;;;;;10442370;28;20128;-89
2022/08/06 04:50:26;;;;;;;20.70;11.35;;;;;;;;;;10465784;28;20378;-89
2022/08/06 04:56:12;;;;;;;22.80;10.60;;;;;;;;;;10463650;28;20127;-88
2022/08/06 05:01:25;;;;;;;12.65;7.47;;;;;;;;;;10441043;28;20482;-88
2022/08/06 05:07:01;;;;;;;14.50;7.90;;;;;;;;;;10459258;28;20095;-87
2022/08/06 05:12:20;;;;;;;13.15;7.10;;;;;;;;;;10451685;28;20048;-88
2022/08/06 05:17:45;;;;;;;15.95;8.27;;;;;;;;;;10456898;28;20028;-88
2022/08/06 05:22:56;;;;;;;11.63;7.10;;;;;;;;;;10465253;28;20048;-88
2022/08/06 05:28:11;;;;;;;12.05;7.32;;;;;;;;;;10456884;28;20124;-87
2022/08/06 05:39:04;;;;;;;11.82;7.20;;;;;;;;;;10484501;28;20048;-88
2022/08/06 05:44:35;;;;;;;11.45;6.57;;;;;;;;;;10478275;28;20525;-88
2022/08/06 05:49:55;;;;;;;12.75;6.28;;;;;;;;;;10469125;28;20056;-89
2022/08/06 05:55:09;;;;;;;9.45;5.90;;;;;;;;;;10488636;28;20071;-88
2022/08/06 06:00:22;;;;;;;9.23;5.50;;;;;;;;;;10490025;28;20059;-88
2022/08/06 06:11:32;;;;;;;15.48;8.52;;;;;;;;;;10473130;28;20246;-88
2022/08/06 06:22:30;;;;;;;11.52;6.40;;;;;;;;;;10480152;28;20064;-87
2022/08/06 06:27:57;;;;;;;10.15;5.95;;;;;;;;;;10479346;28;20037;-88
2022/08/06 06:33:16;;;;;;;8.70;5.03;;;;;;;;;;10483365;28;20236;-88
2022/08/06 06:38:51;;;;;;;9.73;5.25;;;;;;;;;;10479150;28;20064;-88
2022/08/06 06:49:56;;;;;;;9.15;5.32;;;;;;;;;;10482669;28;20064;-88
2022/08/06 06:55:17;;;;;;;8.90;5.22;;;;;;;;;;10477408;28;20048;-87
2022/08/06 07:01:05;;;;;;;8.90;5.60;;;;;;;;;;10464937;28;20075;-87
2022/08/06 07:06:46;;;;;;;8.80;5.03;;;;;;;;;;10457917;28;20433;-87
2022/08/06 07:12:18;;;;;;;9.95;5.30;;;;;;;;;;10453495;28;20041;-88
2022/08/06 07:17:37;;;;;;;10.52;6.50;;;;;;;;;;10451619;28;20132;-90
2022/08/06 07:23:13;;;;;;;10.13;6.25;;;;;;;;;;10479979;28;20593;-87
2022/08/06 07:28:46;;;;;;;11.40;6.30;;;;;;;;;;10448485;28;20107;-90
2022/08/06 07:34:04;;;;;;;10.05;6.40;;;;;;;;;;10462454;28;20470;-89
2022/08/06 07:39:25;;;;;;;9.82;6.32;;;;;;;;;;10481930;28;20049;-89
2022/08/06 07:44:40;;;;;;;10.45;7.00;;;;;;;;;;10516367;28;20035;-89
2022/08/06 07:50:08;;;;;;;10.88;6.80;;;;;;;;;;10529335;28;20036;-90
2022/08/06 07:55:25;;;;;;;10.75;7.22;;;;;;;;;;10497871;28;20121;-90
2022/08/06 08:17:29;;;;;;;13.50;8.57;;;;;;;;;;10475314;28;20071;-90
2022/08/06 08:23:06;;;;;;;14.32;8.68;;;;;;;;;;10494921;28;20143;-89
2022/08/06 08:28:40;;;;;;;17.63;8.93;;;;;;;;;;10464311;28;20032;-87
2022/08/06 08:33:53;;;;;;;17.60;9.27;;;;;;;;;;10460745;28;20159;-91
2022/08/06 08:39:02;;;;;;;16.58;10.00;;;;;;;;;;10475090;28;20033;-90
2022/08/06 08:44:24;;;;;;;19.25;10.82;;;;;;;;;;10473070;28;20108;-89
2022/08/06 08:49:57;;;;;;;17.13;10.75;;;;;;;;;;10464304;28;20033;-90
2022/08/06 09:23:40;;;;;;;15.80;10.13;;;;;;;;;;10489266;28;20067;-90
2022/08/06 09:29:10;;;;;;;16.70;10.13;;;;;;;;;;10480455;28;20256;-90
2022/08/06 09:34:42;;;;;;;15.70;10.25;;;;;;;;;;10491730;28;20043;-91
2022/08/06 09:40:06;;;;;;;18.58;9.57;;;;;;;;;;10483444;28;20052;-91
2022/08/06 09:45:31;;;;;;;15.05;8.93;;;;;;;;;;10492746;28;20067;-90
2022/08/06 09:50:54;;;;;;;13.70;8.57;;;;;;;;;;10505214;28;20033;-92
2022/08/06 09:56:17;;;;;;;15.68;9.35;;;;;;;;;;10504204;28;20169;-93
2022/08/06 10:01:27;;;;;;;15.00;8.55;;;;;;;;;;10483713;28;20196;-91
2022/08/06 10:07:01;;;;;;;90.68;43.58;;;;;;;;;;10491389;28;20102;-92
2022/08/06 10:12:26;;;;;;;10.38;7.28;;;;;;;;;;10467120;28;20055;-92
2022/08/06 10:17:53;;;;;;;10.13;6.38;;;;;;;;;;10488554;28;20083;-93
2022/08/06 10:28:50;;;;;;;13.13;7.13;;;;;;;;;;10484150;28;20036;-93
2022/08/06 10:34:11;;;;;;;10.38;6.65;;;;;;;;;;10443254;28;20253;-91
2022/08/06 10:39:32;;;;;;;9.80;6.18;;;;;;;;;;10479529;28;20195;-91
2022/08/06 10:44:59;;;;;;;10.30;7.30;;;;;;;;;;10502419;28;20110;-93
2022/08/06 10:50:25;;;;;;;14.27;7.55;;;;;;;;;;10505489;28;20100;-94
2022/08/06 10:55:56;;;;;;;9.80;6.00;;;;;;;;;;10476849;28;20261;-94
2022/08/06 11:01:08;;;;;;;10.75;6.53;;;;;;;;;;10488227;28;20094;-93
2022/08/06 11:06:15;;;;;;;;;;;;;;;;;;10481259;28;20039;-93
2022/08/06 11:11:38;;;;;;;11.32;6.47;;;;;;;;;;10572148;22;19931;-95
2022/08/06 11:17:00;;;;;;;10.52;7.00;;;;;;;;;;10578832;22;20036;-92
2022/08/06 11:22:03;;;;;;;10.10;7.15;;;;;;;;;;10477966;28;20036;-95
2022/08/06 11:27:28;;;;;;;10.60;7.20;;;;;;;;;;10482295;28;20371;-94
2022/08/06 11:32:45;;;;;;;11.60;7.63;;;;;;;;;;10475890;28;20048;-93
2022/08/06 11:37:49;;;;;;;12.23;7.47;;;;;;;;;;10486215;28;20045;-93
2022/08/06 11:43:12;;;;;;;;;;;;;;;;;;10474834;28;20099;-93
2022/08/06 11:48:17;;;;;;;11.95;7.10;;;;;;;;;;10482959;28;20357;-94
2022/08/06 11:53:40;;;;;;;11.52;6.90;;;;;;;;;;10497798;28;20037;-92
2022/08/06 11:59:12;;;;;;;11.07;7.55;;;;;;;;;;10485224;28;20055;-94
2022/08/06 12:04:40;;;;;;;14.63;8.82;;;;;;;;;;10496353;28;20334;-91
2022/08/06 12:09:59;;;;;;;14.77;10.15;;;;;;;;;;10501098;28;20117;-91
2022/08/06 12:15:30;;;;;;;17.60;9.13;;;;;;;;;;10506320;28;20026;-94
2022/08/06 12:21:23;;;;;;;18.67;10.95;;;;;;;;;;10495452;28;20032;-92
2022/08/06 12:26:48;;;;;;;13.75;8.60;;;;;;;;;;10505887;28;20509;-93
2022/08/06 12:32:04;;;;;;;12.93;8.18;;;;;;;;;;10474949;28;20532;-92
2022/08/06 12:37:23;;;;;;;13.32;8.80;;;;;;;;;;10477666;28;20049;-95
2022/08/06 12:42:48;;;;;;;11.00;6.88;;;;;;;;;;10491373;28;20098;-92
2022/08/06 12:48:05;;;;;;;12.65;7.72;;;;;;;;;;10502832;28;20055;-92
2022/08/06 12:59:04;;;;;;;11.48;6.35;;;;;;;;;;10500014;28;20136;-94
2022/08/06 13:04:25;;;;;;;10.90;7.05;;;;;;;;;;10471377;28;20071;-94
2022/08/06 13:09:36;;;;;;;13.82;8.23;;;;;;;;;;10462065;28;20540;-92
2022/08/06 13:15:23;;;;;;;12.13;6.78;;;;;;;;;;10493128;28;20039;-93
2022/08/06 13:20:52;;;;;;;11.10;7.63;;;;;;;;;;10483850;28;20420;-93
2022/08/06 13:26:14;;;;;;;9.70;6.03;;;;;;;;;;10480486;28;20117;-93
2022/08/06 13:31:40;;;;;;;10.75;6.57;;;;;;;;;;10477234;28;20112;-94
2022/08/06 13:37:07;;;;;;;11.45;6.65;;;;;;;;;;10478525;28;20131;-94
2022/08/06 13:42:20;;;;;;;8.57;6.30;;;;;;;;;;10471827;28;20063;-91
2022/08/06 13:47:42;;;;;;;10.60;6.85;;;;;;;;;;10492854;28;20440;-94
2022/08/06 13:53:06;;;;;;;20.92;11.63;;;;;;;;;;10477785;28;20132;-94
2022/08/06 13:58:17;;;;;;;13.75;10.15;;;;;;;;;;10524071;28;20036;-94
2022/08/06 14:03:40;;;;;;;9.18;6.47;;;;;;;;;;10485990;28;20051;-92
2022/08/06 14:08:54;;;;;;;10.30;6.18;;;;;;;;;;10498456;28;20032;-93
2022/08/06 14:14:10;;;;;;;8.00;5.97;;;;;;;;;;10495821;28;20105;-93
2022/08/06 14:19:22;;;;;;;13.90;6.88;;;;;;;;;;10510755;28;20051;-94
2022/08/06 14:24:59;;;;;;;7.45;5.50;;;;;;;;;;10520841;28;20045;-94
2022/08/06 14:30:20;;;;;;;7.68;5.00;;;;;;;;;;10526702;28;20056;-94
2022/08/06 14:35:39;;;;;;;8.15;5.40;;;;;;;;;;10494539;28;20032;-93
2022/08/06 14:46:42;;;;;;;7.20;5.22;;;;;;;;;;10536652;28;20037;-92
2022/08/06 14:51:52;;;;;;;10.55;5.60;;;;;;;;;;10526209;28;20044;-92
2022/08/06 14:57:24;;;;;;;7.55;5.63;;;;;;;;;;10526319;28;20238;-93
2022/08/06 15:02:50;;;;;;;7.95;4.93;;;;;;;;;;10516854;28;20045;-92
2022/08/06 15:08:23;;;;;;;7.65;4.75;;;;;;;;;;10499638;28;20045;-92
2022/08/06 15:13:41;;;;;;;9.70;5.35;;;;;;;;;;10478928;28;20037;-90
2022/08/06 15:19:00;;;;;;;7.18;4.78;;;;;;;;;;10474407;28;20047;-88
2022/08/06 15:24:34;;;;;;;8.63;4.65;;;;;;;;;;10486136;28;20350;-85
2022/08/06 15:35:18;;;;;;;6.72;4.97;;;;;;;;;;10465207;28;20049;-82
2022/08/06 15:40:24;;;;;;;8.18;5.72;;;;;;;;;;10486033;28;20110;-80
2022/08/06 15:45:44;;;;;;;8.32;4.88;;;;;;;;;;10486054;28;20040;-80
2022/08/06 15:50:57;;;;;;;7.72;5.32;;;;;;;;;;10458866;28;20045;-79
2022/08/06 15:56:21;;;;;;;8.75;5.72;;;;;;;;;;10481898;28;20119;-79
2022/08/06 16:01:54;;;;;;;7.95;5.68;;;;;;;;;;10486865;28;20043;-80
2022/08/06 16:07:13;;;;;;;8.30;5.18;;;;;;;;;;10489183;28;20052;-80
2022/08/06 16:12:28;;;;;;;7.00;4.78;;;;;;;;;;10452649;28;20535;-80
2022/08/06 16:17:50;;;;;;;9.05;4.85;;;;;;;;;;10459868;28;20059;-80
2022/08/06 16:23:16;;;;;;;8.93;5.55;;;;;;;;;;10458024;28;20283;-80
2022/08/06 16:28:45;;;;;;;7.57;5.05;;;;;;;;;;10464286;28;20036;-80
2022/08/06 16:33:55;;;;;;;10.35;5.88;;;;;;;;;;10467205;28;20056;-80
2022/08/06 16:39:06;;;;;;;11.98;5.85;;;;;;;;;;10473002;28;20100;-81
2022/08/06 16:44:32;;;;;;;10.82;5.82;;;;;;;;;;10471475;28;20093;-81
2022/08/06 16:50:15;;;;;;;8.15;5.40;;;;;;;;;;10465219;28;20036;-82
2022/08/06 16:55:38;;;;;;;9.18;5.88;;;;;;;;;;10475426;28;20437;-79
2022/08/06 17:00:48;;;;;;;10.55;6.00;;;;;;;;;;10459115;28;20090;-82
2022/08/06 17:06:27;;;;;;;7.88;5.50;;;;;;;;;;10478186;28;20036;-82
2022/08/06 17:11:41;;;;;;;10.55;5.95;;;;;;;;;;10473038;28;20056;-83
2022/08/06 17:17:15;;;;;;;9.48;5.50;;;;;;;;;;10459200;28;20556;-82
2022/08/06 17:22:43;;;;;;;7.78;5.20;;;;;;;;;;10480726;28;20493;-82
2022/08/06 17:27:52;;;;;;;10.95;6.28;;;;;;;;;;10493574;28;20041;-82
2022/08/06 17:33:04;;;;;;;8.75;5.72;;;;;;;;;;10495119;28;20043;-83
2022/08/06 17:38:15;;;;;;;12.30;6.00;;;;;;;;;;10468432;28;20497;-82
2022/08/06 17:49:00;;;;;;;10.30;5.90;;;;;;;;;;10475665;28;20029;-82
2022/08/06 17:54:18;;;;;;;12.23;6.25;;;;;;;;;;10453803;28;20087;-82
2022/08/06 17:59:42;;;;;;;14.85;6.88;;;;;;;;;;10486789;28;20030;-82
2022/08/06 18:05:00;;;;;;;8.85;4.78;;;;;;;;;;10477785;28;20052;-82
2022/08/06 18:10:44;;;;;;;8.32;5.55;;;;;;;;;;10451775;28;20546;-83
2022/08/06 18:21:22;;;;;;;9.77;5.70;;;;;;;;;;10478350;28;20066;-84
2022/08/06 18:26:48;;;;;;;12.57;6.05;;;;;;;;;;10493686;28;20037;-84
2022/08/06 18:31:58;;;;;;;9.00;6.55;;;;;;;;;;10476432;28;20044;-84
2022/08/06 18:37:11;;;;;;;12.52;7.40;;;;;;;;;;10492426;28;20116;-82
2022/08/06 18:42:28;;;;;;;10.68;5.88;;;;;;;;;;10468038;28;20044;-83
2022/08/06 18:47:38;;;;;;;10.52;5.97;;;;;;;;;;10451220;28;20552;-84
2022/08/06 18:52:54;;;;;;;10.98;6.35;;;;;;;;;;10491424;28;20097;-83
2022/08/06 18:58:21;;;;;;;14.00;6.18;;;;;;;;;;10479544;28;20056;-83
2022/08/06 19:14:29;;;;;;;10.37;6.27;;;;;;;;;;10472175;28;20103;-83
2022/08/06 19:19:40;;;;;;;12.18;6.25;;;;;;;;;;10480473;28;20067;-83
2022/08/06 19:25:09;;;;;;;10.27;5.72;;;;;;;;;;10493755;28;20485;-84
2022/08/06 19:30:24;;;;;;;13.63;7.45;;;;;;;;;;10468793;28;20029;-83
2022/08/06 19:35:52;;;;;;;13.38;7.43;;;;;;;;;;10463559;28;20429;-83
2022/08/06 19:41:17;;;;;;;10.48;5.63;;;;;;;;;;10481675;28;20462;-83
2022/08/06 19:46:52;;;;;;;12.38;6.40;;;;;;;;;;10487728;28;20112;-82
2022/08/06 19:51:59;;;;;;;11.15;6.93;;;;;;;;;;10467917;28;20036;-82
2022/08/06 19:57:17;;;;;;;11.98;7.35;;;;;;;;;;10456359;28;20541;-82
2022/08/06 20:02:30;;;;;;;13.55;6.75;;;;;;;;;;10472656;28;20147;-83
2022/08/06 20:07:36;;;;;;;12.48;7.40;;;;;;;;;;10469161;28;20508;-83
2022/08/06 20:13:11;;;;;;;12.10;7.47;;;;;;;;;;10460084;28;20072;-83
2022/08/06 20:18:27;;;;;;;14.27;7.00;;;;;;;;;;10459096;28;20120;-83
2022/08/06 20:23:43;;;;;;;14.80;7.80;;;;;;;;;;10458943;28;20065;-83
2022/08/06 20:28:58;;;;;;;11.15;5.57;;;;;;;;;;10477394;28;21052;-83
2022/08/06 20:34:36;;;;;;;14.13;8.48;;;;;;;;;;10461759;28;20179;-82
2022/08/06 20:39:54;;;;;;;;;;;;;;;;;;10442841;28;20043;-82
2022/08/06 20:45:00;;;;;;;14.02;8.57;;;;;;;;;;10484687;28;19928;-83
2022/08/06 20:56:01;;;;;;;15.93;6.65;;;;;;;;;;10473891;28;20144;-82
2022/08/06 21:01:17;;;;;;;15.48;8.77;;;;;;;;;;10491530;28;20028;-85
2022/08/06 21:06:34;;;;;;;17.77;8.95;;;;;;;;;;10483443;28;20108;-82
2022/08/06 21:11:57;;;;;;;16.73;10.27;;;;;;;;;;10479507;28;20679;-82
2022/08/06 21:17:20;;;;;;;17.92;9.32;;;;;;;;;;10458004;28;20135;-83
2022/08/06 21:22:46;;;;;;;16.58;9.52;;;;;;;;;;10472438;28;20429;-82
2022/08/06 21:28:08;;;;;;;17.60;9.25;;;;;;;;;;10472205;28;20047;-82
2022/08/06 21:33:23;;;;;;;22.13;11.75;;;;;;;;;;10451864;28;20497;-81
2022/08/06 21:38:51;;;;;;;21.33;10.98;;;;;;;;;;10470939;28;20040;-83
2022/08/06 21:43:59;;;;;;;17.02;10.35;;;;;;;;;;10480603;28;20424;-83
2022/08/06 21:55:17;;;;;;;21.55;11.70;;;;;;;;;;10459634;28;20048;-83
2022/08/06 22:01:09;;;;;;;23.70;11.60;;;;;;;;;;10463249;28;20037;-83
2022/08/06 22:06:16;;;;;;;20.95;11.13;;;;;;;;;;10460044;28;20581;-79
2022/08/06 22:11:40;;;;;;;22.48;12.73;;;;;;;;;;10458626;28;20119;-80
2022/08/06 22:17:05;;;;;;;21.92;12.25;;;;;;;;;;10452234;28;20631;-80
2022/08/06 22:22:18;;;;;;;21.60;12.07;;;;;;;;;;10466254;28;20110;-77
2022/08/06 22:27:36;;;;;;;22.25;11.73;;;;;;;;;;10479002;28;20134;-77
2022/08/06 22:32:47;;;;;;;19.45;10.65;;;;;;;;;;10491661;28;20454;-77
2022/08/06 22:38:03;;;;;;;24.02;12.70;;;;;;;;;;10454890;28;20055;-78
2022/08/06 22:43:25;;;;;;;22.73;12.20;;;;;;;;;;10484769;28;20068;-78
2022/08/06 22:48:51;;;;;;;22.45;11.95;;;;;;;;;;10462985;28;20052;-78
2022/08/06 22:54:03;;;;;;;20.38;11.63;;;;;;;;;;10466536;28;20575;-76
2022/08/06 22:59:29;;;;;;;20.02;11.68;;;;;;;;;;10465022;28;20040;-77
2022/08/06 23:04:52;;;;;;;23.70;12.73;;;;;;;;;;10451287;28;20549;-79
2022/08/06 23:10:07;;;;;;;22.20;12.88;;;;;;;;;;10447713;28;20041;-77
2022/08/06 23:15:17;;;;;;;23.98;13.35;;;;;;;;;;10464329;28;20110;-77
2022/08/06 23:20:46;;;;;;;27.40;13.88;;;;;;;;;;10478167;28;20035;-77
2022/08/06 23:25:54;;;;;;;22.02;12.60;;;;;;;;;;10460375;28;20155;-77
2022/08/06 23:31:05;;;;;;;23.17;11.02;;;;;;;;;;10467270;28;20037;-76
2022/08/06 23:36:11;;;;;;;25.35;13.00;;;;;;;;;;10480407;28;20036;-77
2022/08/06 23:41:23;;;;;;;22.48;11.02;;;;;;;;;;10440425;28;20041;-76
2022/08/06 23:46:50;;;;;;;18.35;10.45;;;;;;;;;;10460253;28;20076;-78
2022/08/06 23:52:17;;;;;;;24.35;10.98;;;;;;;;;;10477727;28;20430;-77
2022/08/06 23:57:44;;;;;;;19.02;9.75;;;;;;;;;;10458911;28;20029;-78
